Time;durP1;ratioP1;P1;durP2;ratioP2;P2;SDS_P1;SDS_P2;PMS_P1;PMS_P2;Temp;Humidity;BMP_temperature;BMP_pressure;BME280_temperature;BME280_humidity;BME280_pressure;Samples;Min_cycle;Max_cycle;Signal;HPM_P1;HPM_P2
2023/06/26 00:00:15;;;;;;;;;3.25;3.25;;;;;25.39;49.75;101285.78;6308538;22;45380;-66
2023/06/26 00:02:41;;;;;;;;;1.25;1.25;;;;;25.33;49.57;101283.59;6307047;22;45600;-66
2023/06/26 00:05:06;;;;;;;;;3.25;2.00;;;;;25.41;49.92;101318.44;6309338;22;46217;-66
2023/06/26 00:07:34;;;;;;;;;5.00;5.00;;;;;25.30;50.08;101309.28;6306726;22;45575;-66
2023/06/26 00:10:01;;;;;;;;;4.25;4.25;;;;;25.28;49.61;101305.84;6307089;22;45284;-65
2023/06/26 00:12:26;;;;;;;;;4.75;4.00;;;;;25.09;50.10;101273.75;6309077;22;45717;-65
2023/06/26 00:14:52;;;;;;;;;2.75;2.75;;;;;25.11;49.63;101282.66;6306750;22;47754;-66
2023/06/26 00:17:18;;;;;;;;;3.00;2.50;;;;;25.29;49.65;101321.25;6306836;22;45340;-66
2023/06/26 00:19:43;;;;;;;;;4.75;4.75;;;;;25.14;49.77;101293.34;6306370;22;45411;-66
2023/06/26 00:22:08;;;;;;;;;2.50;2.50;;;;;25.14;49.74;101297.91;6308842;22;45361;-65
2023/06/26 00:24:34;;;;;;;;;3.25;3.25;;;;;25.17;50.03;101307.72;6306917;22;47638;-66
2023/06/26 00:26:59;;;;;;;;;3.00;3.00;;;;;25.14;49.67;101323.38;6308444;22;45368;-66
2023/06/26 00:29:24;;;;;;;;;2.25;2.25;;;;;24.94;49.62;101292.31;6308896;22;45428;-66
2023/06/26 00:31:50;;;;;;;;;3.00;2.50;;;;;25.05;49.49;101326.88;6306243;22;45461;-65
2023/06/26 00:34:15;;;;;;;;;3.50;3.00;;;;;25.02;49.97;101318.09;6308957;22;45272;-66
2023/06/26 00:36:43;;;;;;;;;3.00;3.00;;;;;24.84;49.76;101304.13;6308644;22;45246;-65
2023/06/26 00:39:09;;;;;;;;;3.00;3.00;;;;;24.87;49.95;101312.06;6306284;22;45302;-65
2023/06/26 00:41:38;;;;;;;;;1.25;1.25;;;;;24.95;50.18;101337.72;6309031;22;45218;-66
2023/06/26 00:44:07;;;;;;;;;4.25;2.50;;;;;24.90;49.59;101328.19;6308032;22;46091;-66
2023/06/26 00:46:33;;;;;;;;;3.75;3.00;;;;;24.73;49.54;101316.81;6307084;22;45468;-65
2023/06/26 00:49:01;;;;;;;;;2.25;2.25;;;;;24.78;49.58;101330.94;6308500;22;45560;-65
2023/06/26 00:51:29;;;;;;;;;2.00;2.00;;;;;24.66;49.79;101317.44;6308667;22;45480;-65
2023/06/26 00:53:55;;;;;;;;;3.50;3.50;;;;;24.73;50.36;101324.13;6306589;22;47935;-65
2023/06/26 00:56:20;;;;;;;;;4.75;3.00;;;;;24.61;50.71;101301.47;6306949;22;45442;-66
2023/06/26 00:58:46;;;;;;;;;2.75;2.75;;;;;24.69;49.99;101315.34;6306630;22;45375;-65
2023/06/26 01:01:17;;;;;;;;;3.25;3.25;;;;;24.83;50.45;101337.88;6309083;22;45414;-65
2023/06/26 01:03:44;;;;;;;;;3.50;2.00;;;;;24.85;50.34;101341.34;6308849;22;45454;-66
2023/06/26 01:06:12;;;;;;;;;2.75;2.75;;;;;24.84;50.63;101347.78;6308715;22;45301;-66
2023/06/26 01:08:39;;;;;;;;;2.00;2.00;;;;;24.81;50.23;101339.84;6308562;22;45200;-65
2023/06/26 01:11:05;;;;;;;;;3.25;3.25;;;;;24.70;51.11;101333.44;6306616;22;45451;-65
2023/06/26 01:13:31;;;;;;;;;4.00;4.00;;;;;24.73;51.18;101352.28;6306546;22;46868;-66
2023/06/26 01:15:58;;;;;;;;;2.50;2.50;;;;;24.54;50.60;101322.00;6306791;22;45942;-65
2023/06/26 01:18:25;;;;;;;;;5.00;3.25;;;;;24.70;51.01;101357.16;6306022;22;45370;-66
2023/06/26 01:20:51;;;;;;;;;3.25;3.25;;;;;24.53;51.23;101336.66;6306210;22;45204;-66
2023/06/26 01:23:31;;;;;;;;;3.00;3.00;;;;;24.49;50.97;101332.44;6308659;22;45987;-65
2023/06/26 01:26:05;;;;;;;;;4.00;4.00;;;;;24.55;51.26;101357.41;6280848;22;45496;-66
2023/06/26 01:28:33;;;;;;;;;4.50;4.00;;;;;24.28;51.32;101332.34;6306621;22;45620;-66
2023/06/26 01:30:59;;;;;;;;;3.00;3.00;;;;;24.30;52.15;101339.41;6306478;22;45922;-65
2023/06/26 01:33:24;;;;;;;;;1.75;1.75;;;;;24.25;52.21;101347.09;6307593;22;45473;-66
2023/06/26 01:35:50;;;;;;;;;3.00;3.00;;;;;24.04;52.48;101312.38;6308562;22;45223;-66
2023/06/26 01:38:20;;;;;;;;;4.00;3.75;;;;;24.22;52.14;101360.97;6308563;22;45212;-66
2023/06/26 01:40:46;;;;;;;;;3.25;2.50;;;;;24.26;52.65;101380.69;6307597;22;45354;-66
2023/06/26 01:43:40;;;;;;;;;3.50;3.25;;;;;24.27;52.62;101385.16;6308224;22;45334;-66
2023/06/26 01:46:27;;;;;;;;;5.00;5.00;;;;;24.23;52.36;101392.72;6308388;22;45711;-65
2023/06/26 01:49:06;;;;;;;;;4.25;3.25;;;;;24.20;52.53;101402.00;6294792;22;45448;-65
2023/06/26 01:51:37;;;;;;;;;8.25;5.00;;;;;23.99;52.85;101376.44;6308406;22;45209;-65
2023/06/26 01:54:08;;;;;;;;;4.00;4.00;;;;;24.03;52.73;101387.00;6308584;22;45409;-65
2023/06/26 01:56:36;;;;;;;;;6.50;3.00;;;;;24.12;52.95;101409.06;6308459;22;45191;-65
2023/06/26 01:59:05;;;;;;;;;5.50;4.00;;;;;23.91;52.77;101374.34;6308106;22;45377;-65
2023/06/26 02:01:33;;;;;;;;;6.50;6.00;;;;;23.85;52.71;101364.78;6308108;22;45505;-65
2023/06/26 02:03:58;;;;;;;;;5.50;5.50;;;;;24.04;52.69;101410.56;6308144;22;45594;-65
2023/06/26 02:06:24;;;;;;;;;5.75;5.75;;;;;23.89;52.64;101384.50;6308487;22;45237;-66
2023/06/26 02:08:49;;;;;;;;;6.25;5.50;;;;;23.65;52.89;101354.53;6307692;22;45674;-65
2023/06/26 02:11:14;;;;;;;;;4.25;4.25;;;;;23.81;52.67;101404.16;6308119;22;45401;-65
2023/06/26 02:13:40;;;;;;;;;3.25;3.25;;;;;23.76;52.65;101400.91;6308153;22;45943;-66
2023/06/26 02:16:05;;;;;;;;;4.75;4.75;;;;;23.87;52.93;101416.44;6308534;22;45235;-65
2023/06/26 02:18:30;;;;;;;;;3.25;3.25;;;;;23.82;52.81;101408.66;6308514;22;45448;-65
2023/06/26 02:20:56;;;;;;;;;4.00;3.50;;;;;23.67;52.35;101394.31;6308505;22;45308;-65
2023/06/26 02:23:21;;;;;;;;;5.00;3.75;;;;;23.86;52.73;101431.94;6306509;22;47333;-66
2023/06/26 02:25:46;;;;;;;;;5.75;4.00;;;;;23.73;52.37;101416.63;6306252;22;45387;-66
2023/06/26 02:28:12;;;;;;;;;2.25;2.25;;;;;23.76;52.50;101430.91;6306304;22;45402;-66
2023/06/26 02:30:37;;;;;;;;;2.00;1.00;;;;;23.63;52.22;101420.06;6308130;22;45291;-65
2023/06/26 02:33:02;;;;;;;;;2.50;1.00;;;;;23.69;52.25;101435.09;6308362;22;45434;-66
2023/06/26 02:35:28;;;;;;;;;3.25;3.00;;;;;23.66;52.28;101428.00;6308309;22;45534;-66
2023/06/26 02:37:53;;;;;;;;;3.00;3.00;;;;;23.59;52.05;101423.13;6306038;22;45297;-66
2023/06/26 02:40:19;;;;;;;;;0.50;0.50;;;;;23.46;52.13;101407.75;6307977;22;45326;-66
2023/06/26 02:42:44;;;;;;;;;2.25;2.00;;;;;23.63;51.99;101455.50;6307959;22;46104;-65
2023/06/26 02:45:09;;;;;;;;;2.00;2.00;;;;;23.42;52.06;101419.88;6308326;22;45223;-65
2023/06/26 02:47:36;;;;;;;;;2.00;2.00;;;;;23.42;51.52;101432.59;6308107;22;45326;-65
2023/06/26 02:50:02;;;;;;;;;3.50;2.00;;;;;23.34;52.06;101421.41;6308227;22;45182;-66
2023/06/26 02:52:28;;;;;;;;;2.00;2.00;;;;;23.46;51.35;101456.78;6306843;22;47200;-67
2023/06/26 02:54:53;;;;;;;;;1.25;1.25;;;;;23.25;51.58;101429.28;6309383;22;45271;-65
2023/06/26 02:57:19;;;;;;;;;1.75;1.25;;;;;23.44;51.58;101475.09;6309148;22;45271;-66
2023/06/26 02:59:44;;;;;;;;;2.00;2.00;;;;;23.26;51.58;101454.69;6308671;22;45265;-66
2023/06/26 03:02:09;;;;;;;;;3.75;2.00;;;;;23.18;51.62;101449.81;6309451;22;45295;-65
2023/06/26 03:04:36;;;;;;;;;2.00;2.00;;;;;23.20;51.72;101452.41;6309362;22;45242;-66
2023/06/26 03:07:02;;;;;;;;;1.25;1.00;;;;;23.16;51.87;101465.41;6308675;22;45450;-66
2023/06/26 03:09:27;;;;;;;;;2.00;2.00;;;;;23.03;52.04;101450.91;6307059;22;45610;-66
2023/06/26 03:11:55;;;;;;;;;1.00;1.00;;;;;22.94;52.08;101456.06;6309340;22;45334;-65
2023/06/26 03:14:20;;;;;;;;;1.00;1.00;;;;;22.93;51.91;101443.41;6308970;22;45428;-65
2023/06/26 03:16:46;;;;;;;;;4.50;2.00;;;;;22.87;52.25;101446.63;6309295;22;45299;-65
2023/06/26 03:19:11;;;;;;;;;2.25;0.75;;;;;23.00;51.82;101462.03;6307282;22;45177;-65
2023/06/26 03:21:36;;;;;;;;;3.00;1.50;;;;;23.05;52.13;101474.31;6309329;22;45293;-66
2023/06/26 03:24:02;;;;;;;;;2.25;1.00;;;;;22.97;52.27;101467.69;6309390;22;45440;-67
2023/06/26 03:26:28;;;;;;;;;1.00;1.00;;;;;22.82;51.68;101446.09;6309688;22;45295;-65
2023/06/26 03:28:54;;;;;;;;;1.25;1.00;;;;;23.01;51.96;101478.25;6307097;22;45618;-65
2023/06/26 03:31:20;;;;;;;;;1.75;1.25;;;;;22.99;51.73;101477.50;6308951;22;45348;-65
2023/06/26 03:33:46;;;;;;;;;2.50;1.00;;;;;22.94;52.39;101480.56;6308999;22;45843;-65
2023/06/26 03:36:11;;;;;;;;;1.75;1.00;;;;;22.79;52.35;101446.28;6308939;22;45313;-65
2023/06/26 03:38:36;;;;;;;;;2.25;1.00;;;;;22.85;52.39;101464.88;6309158;22;45314;-65
2023/06/26 03:41:02;;;;;;;;;1.50;1.00;;;;;22.96;52.77;101487.75;6309313;22;45401;-65
2023/06/26 03:43:28;;;;;;;;;2.25;2.25;;;;;22.94;52.29;101485.16;6309172;22;45400;-66
2023/06/26 03:45:53;;;;;;;;;3.25;2.00;;;;;22.63;52.80;101454.69;6309436;22;45457;-65
2023/06/26 03:48:19;;;;;;;;;2.00;2.00;;;;;22.81;52.64;101487.00;6307072;22;45593;-66
2023/06/26 03:50:45;;;;;;;;;3.00;2.00;;;;;22.76;52.93;101490.91;6308919;22;45810;-65
2023/06/26 03:53:10;;;;;;;;;2.00;2.00;;;;;22.84;53.32;101512.16;6281189;22;45573;-65
2023/06/26 03:55:38;;;;;;;;;2.75;2.75;;;;;22.80;53.10;101507.91;6307085;22;45200;-65
2023/06/26 03:58:03;;;;;;;;;2.00;2.00;;;;;22.53;52.95;101478.09;6308772;22;45329;-65
2023/06/26 04:00:28;;;;;;;;;1.75;1.75;;;;;22.71;53.27;101506.72;6308450;22;45317;-65
2023/06/26 04:02:54;;;;;;;;;1.50;1.50;;;;;22.64;53.16;101505.44;6308865;22;45253;-66
2023/06/26 04:05:19;;;;;;;;;2.50;2.50;;;;;22.67;53.08;101513.38;6309057;22;45422;-65
2023/06/26 04:07:45;;;;;;;;;4.00;2.00;;;;;22.49;53.29;101482.91;6307885;22;45369;-66
2023/06/26 04:10:10;;;;;;;;;4.75;2.00;;;;;22.58;53.44;101505.84;6308860;22;45227;-65
2023/06/26 04:12:35;;;;;;;;;4.75;2.00;;;;;22.54;53.59;101498.91;6308897;22;45274;-65
2023/06/26 04:15:01;;;;;;;;;3.00;3.00;;;;;22.54;53.17;101507.94;6307823;22;45345;-66
2023/06/26 04:17:26;;;;;;;;;3.00;3.00;;;;;22.65;53.46;101536.22;6308693;22;45384;-65
2023/06/26 04:19:52;;;;;;;;;4.25;2.50;;;;;22.64;54.04;101545.38;6308105;22;46344;-65
2023/06/26 04:22:17;;;;;;;;;2.25;2.25;;;;;22.48;54.11;101527.38;6306708;22;45353;-65
2023/06/26 04:24:45;;;;;;;;;5.00;3.00;;;;;22.61;54.07;101561.91;6307235;22;45464;-65
2023/06/26 04:27:13;;;;;;;;;3.75;3.50;;;;;22.45;54.03;101548.50;6306878;22;45282;-66
2023/06/26 04:29:39;;;;;;;;;3.00;3.00;;;;;22.47;54.34;101550.16;6306783;22;47513;-66
2023/06/26 04:32:05;;;;;;;;;4.50;2.25;;;;;22.52;54.25;101561.56;6308622;22;45332;-65
2023/06/26 04:34:33;;;;;;;;;2.00;2.00;;;;;22.44;54.04;101555.81;6309167;22;45203;-66
2023/06/26 04:36:59;;;;;;;;;3.25;2.00;;;;;22.43;54.33;101558.63;6307834;22;45446;-65
2023/06/26 04:39:24;;;;;;;;;4.50;2.25;;;;;22.30;54.44;101539.56;6308952;22;46335;-65
2023/06/26 04:41:50;;;;;;;;;2.00;1.75;;;;;22.29;54.16;101540.56;6308771;22;45372;-65
2023/06/26 04:44:15;;;;;;;;;3.50;3.50;;;;;22.20;54.61;101536.56;6309034;22;45490;-65
2023/06/26 04:46:43;;;;;;;;;2.00;2.00;;;;;22.32;54.47;101564.78;6309115;22;45338;-65
2023/06/26 04:49:08;;;;;;;;;1.00;1.00;;;;;22.32;55.29;101562.06;6308592;22;45245;-66
2023/06/26 04:51:40;;;;;;;;;2.00;2.00;;;;;22.31;54.52;101566.66;6308716;22;45438;-65
2023/06/26 04:54:08;;;;;;;;;2.25;2.25;;;;;22.35;55.15;101583.63;6309230;22;45396;-65
2023/06/26 04:56:35;;;;;;;;;5.00;2.00;;;;;22.32;54.91;101578.38;6308887;22;45573;-65
2023/06/26 04:59:00;;;;;;;;;2.50;2.50;;;;;22.30;55.18;101586.69;6308312;22;45259;-66
2023/06/26 05:01:28;;;;;;;;;6.00;2.50;;;;;22.09;54.97;101550.06;6306878;22;45552;-65
2023/06/26 06:04:52;;;;;;;;;6.00;3.00;;;;;20.83;60.12;101616.09;5111684;27;45491;-63
2023/06/26 06:07:17;;;;;;;;;7.75;5.75;;;;;20.96;59.88;101618.91;5086911;27;45507;-64
2023/06/26 06:09:43;;;;;;;;;6.75;6.25;;;;;21.00;60.08;101615.94;5096808;27;45514;-64
2023/06/26 06:12:08;;;;;;;;;8.25;5.00;;;;;20.99;59.03;101592.44;5113803;27;45868;-64
2023/06/26 06:14:34;;;;;;;;;5.50;5.00;;;;;21.12;59.08;101597.09;5089544;27;45386;-64
2023/06/26 06:17:00;;;;;;;;;6.25;4.75;;;;;21.31;58.38;101618.53;5088363;27;45426;-64
2023/06/26 06:19:25;;;;;;;;;5.25;4.75;;;;;21.26;58.29;101600.69;5094481;27;45601;-64
2023/06/26 06:21:51;;;;;;;;;7.25;5.75;;;;;21.29;58.60;101597.78;5088256;27;45708;-64
2023/06/26 06:24:16;;;;;;;;;5.75;5.75;;;;;21.44;58.70;101611.34;5093843;27;47866;-64
2023/06/26 06:26:42;;;;;;;;;8.25;6.50;;;;;21.40;57.98;101605.25;5082114;27;45518;-64
2023/06/26 06:29:07;;;;;;;;;6.00;6.00;;;;;21.48;57.62;101602.03;5091474;27;45375;-64
2023/06/26 06:31:33;;;;;;;;;6.00;5.00;;;;;21.54;57.91;101608.94;5094460;27;45767;-64
2023/06/26 06:33:58;;;;;;;;;7.25;5.00;;;;;21.51;57.55;101599.13;5096479;27;47260;-64
2023/06/26 06:36:23;;;;;;;;;5.75;4.75;;;;;21.55;57.29;101608.84;5105935;27;45615;-64
2023/06/26 06:38:49;;;;;;;;;6.00;4.00;;;;;21.63;57.08;101621.91;5091356;27;45483;-64
2023/06/26 06:41:15;;;;;;;;;4.25;4.25;;;;;21.69;57.44;101639.69;5099660;27;46075;-64
2023/06/26 06:43:41;;;;;;;;;4.50;4.50;;;;;21.69;57.25;101645.97;5090945;27;46392;-64
2023/06/26 06:46:06;;;;;;;;;4.00;3.00;;;;;21.74;56.96;101653.84;5094686;27;45338;-64
2023/06/26 06:48:31;;;;;;;;;3.00;3.00;;;;;21.78;56.94;101652.66;5078597;27;45436;-64
2023/06/26 06:50:57;;;;;;;;;4.50;3.50;;;;;21.66;57.34;101635.31;5110862;27;46766;-64
2023/06/26 06:53:23;;;;;;;;;3.75;3.25;;;;;21.70;56.96;101639.59;5092615;27;45440;-64
2023/06/26 06:55:49;;;;;;;;;2.00;2.00;;;;;21.75;56.98;101640.16;5089985;27;45298;-64
2023/06/26 06:58:16;;;;;;;;;3.00;3.00;;;;;21.68;56.96;101630.63;5087990;27;46387;-64
2023/06/26 07:00:42;;;;;;;;;4.00;4.00;;;;;21.91;56.71;101655.44;5083925;27;45836;-65
2023/06/26 07:03:07;;;;;;;;;4.00;4.00;;;;;21.83;56.73;101642.34;5085004;27;45653;-64
2023/06/26 07:05:33;;;;;;;;;8.00;5.25;;;;;21.76;56.81;101628.28;5085872;27;46115;-64
2023/06/26 07:07:58;;;;;;;;;2.50;2.50;;;;;21.92;56.24;101657.16;5089481;27;45918;-64
2023/06/26 07:10:24;;;;;;;;;5.00;4.25;;;;;21.86;56.04;101649.44;5080015;27;45479;-64
2023/06/26 07:12:49;;;;;;;;;7.00;3.75;;;;;21.83;55.91;101651.41;5087453;27;45520;-65
2023/06/26 07:15:15;;;;;;;;;6.00;5.00;;;;;21.83;56.09;101645.97;5076308;27;45561;-64
2023/06/26 07:17:40;;;;;;;;;5.25;4.00;;;;;21.85;56.01;101643.13;5075603;28;45380;-64
2023/06/26 07:20:08;;;;;;;;;6.00;4.00;;;;;21.87;55.97;101632.16;5071182;27;45507;-64
2023/06/26 07:22:34;;;;;;;;;4.50;4.00;;;;;21.92;56.00;101638.16;5081808;27;47412;-64
2023/06/26 07:24:59;;;;;;;;;4.00;4.00;;;;;21.93;55.97;101665.22;5078943;27;45401;-64
2023/06/26 07:27:25;;;;;;;;;3.75;3.00;;;;;21.86;56.38;101646.72;5083352;27;45385;-64
2023/06/26 07:29:50;;;;;;;;;5.00;5.00;;;;;21.78;56.11;101630.91;5078128;27;46568;-64
2023/06/26 07:32:16;;;;;;;;;7.75;6.25;;;;;21.94;55.60;101655.25;5079833;28;47954;-63
2023/06/26 07:34:41;;;;;;;;;4.00;3.00;;;;;22.01;55.58;101662.88;5078511;27;45450;-64
2023/06/26 07:37:07;;;;;;;;;5.25;2.75;;;;;22.07;55.54;101674.31;5080650;28;45467;-64
2023/06/26 07:39:32;;;;;;;;;3.25;3.00;;;;;22.10;55.67;101676.84;5077940;27;45565;-71
2023/06/26 07:42:00;;;;;;;;;6.00;4.00;;;;;22.10;55.62;101666.84;5079201;28;46940;-68
2023/06/26 07:44:28;;;;;;;;;3.00;3.00;;;;;22.02;55.73;101644.75;5080988;27;45310;-68
2023/06/26 07:46:54;;;;;;;;;4.25;3.50;;;;;22.15;55.31;101669.25;5078928;28;45479;-71
2023/06/26 07:49:19;;;;;;;;;4.75;3.50;;;;;22.10;55.56;101668.69;5078933;27;45558;-71
2023/06/26 07:51:44;;;;;;;;;4.00;3.25;;;;;22.16;55.01;101677.31;5079011;27;45442;-71
2023/06/26 07:54:10;;;;;;;;;5.00;5.00;;;;;22.28;55.34;101691.06;5085986;27;45389;-71
2023/06/26 07:56:55;;;;;;;;;4.00;4.00;;;;;22.30;54.37;101692.75;5069555;27;45621;-65
2023/06/26 07:59:22;;;;;;;;;4.75;4.75;;;;;22.28;54.27;101681.09;5079824;27;45615;-65
2023/06/26 08:01:48;;;;;;;;;5.25;3.50;;;;;22.17;54.46;101662.75;5071293;28;45475;-66
2023/06/26 08:04:13;;;;;;;;;6.00;5.00;;;;;22.18;54.59;101669.91;5081466;27;45450;-65
2023/06/26 08:06:40;;;;;;;;;4.25;3.75;;;;;22.18;54.66;101661.75;5080425;27;45743;-66
2023/06/26 08:09:08;;;;;;;;;5.00;4.75;;;;;22.31;54.66;101671.84;5094318;27;45407;-65
2023/06/26 08:11:34;;;;;;;;;4.25;4.25;;;;;22.44;54.18;101699.13;5076172;27;45399;-66
2023/06/26 08:13:59;;;;;;;;;5.25;3.00;;;;;22.34;53.81;101677.97;5079359;28;45310;-65
2023/06/26 08:16:25;;;;;;;;;4.25;4.25;;;;;22.34;54.00;101675.25;5090343;27;45518;-65
2023/06/26 08:18:50;;;;;;;;;6.00;5.50;;;;;22.32;53.87;101663.59;5078108;28;45405;-66
2023/06/26 08:21:16;;;;;;;;;5.25;5.25;;;;;22.47;53.68;101688.91;5075555;27;45748;-66
2023/06/26 08:23:41;;;;;;;;;4.75;3.25;;;;;22.48;53.45;101697.91;5079252;28;46352;-65
2023/06/26 08:26:06;;;;;;;;;3.75;3.75;;;;;22.50;53.46;101691.41;5084163;27;45820;-65
2023/06/26 08:28:32;;;;;;;;;6.50;5.00;;;;;22.64;53.02;101712.22;5073642;27;45396;-66
2023/06/26 08:30:57;;;;;;;;;5.50;4.00;;;;;22.54;52.02;101681.19;5079592;27;45493;-65
2023/06/26 08:33:22;;;;;;;;;3.00;3.00;;;;;22.59;52.36;101679.03;5078630;28;45644;-66
2023/06/26 08:35:50;;;;;;;;;3.00;3.00;;;;;22.69;52.40;101690.16;5078540;27;45440;-65
2023/06/26 08:38:15;;;;;;;;;5.00;2.25;;;;;22.74;51.85;101690.69;5079112;27;45413;-66
2023/06/26 08:40:40;;;;;;;;;4.75;4.25;;;;;22.83;52.33;101691.91;5081532;27;45516;-66
2023/06/26 08:43:06;;;;;;;;;4.75;4.00;;;;;22.74;51.84;101680.69;5078917;27;45590;-66
2023/06/26 08:45:31;;;;;;;;;3.25;2.75;;;;;22.91;51.39;101695.84;5075887;27;45592;-66
2023/06/26 08:48:00;;;;;;;;;3.75;3.75;;;;;22.95;51.30;101701.94;5074589;27;45458;-67
2023/06/26 08:50:30;;;;;;;;;4.00;4.00;;;;;22.94;51.19;101700.22;5078405;27;45783;-66
2023/06/26 08:53:04;;;;;;;;;3.00;1.00;;;;;23.06;51.00;101715.72;5071582;28;45560;-66
2023/06/26 08:55:33;;;;;;;;;5.00;4.50;;;;;22.91;50.79;101676.78;5077998;27;45457;-66
2023/06/26 08:57:59;;;;;;;;;2.50;2.50;;;;;23.12;50.57;101698.97;5080495;27;45616;-65
2023/06/26 09:00:24;;;;;;;;;5.00;2.25;;;;;23.02;50.02;101677.88;5076557;27;48558;-65
2023/06/26 09:02:50;;;;;;;;;3.00;3.00;;;;;22.94;49.34;101668.41;5076523;27;45551;-66
2023/06/26 09:05:15;;;;;;;;;3.50;3.50;;;;;23.08;49.79;101697.41;5076141;27;45543;-66
2023/06/26 09:07:41;;;;;;;;;3.00;1.75;;;;;23.16;49.67;101705.06;5072102;27;45564;-66
2023/06/26 09:10:08;;;;;;;;;4.75;2.25;;;;;22.96;49.56;101670.16;5076804;27;47782;-65
2023/06/26 09:12:34;;;;;;;;;4.00;3.00;;;;;23.03;49.21;101690.53;5090656;27;45472;-66
2023/06/26 09:15:02;;;;;;;;;4.25;2.75;;;;;23.20;49.17;101706.56;5093908;27;45724;-66
2023/06/26 09:17:37;;;;;;;;;6.75;2.25;;;;;23.10;48.51;101690.03;5076348;28;45382;-66
2023/06/26 09:20:04;;;;;;;;;2.25;2.25;;;;;23.05;48.33;101677.66;5074127;27;47318;-66
2023/06/26 09:22:33;;;;;;;;;4.00;4.00;;;;;23.08;48.46;101685.66;5078254;27;45322;-66
2023/06/26 09:24:58;;;;;;;;;5.25;3.75;;;;;23.11;49.04;101682.72;5070632;27;45506;-66
2023/06/26 09:27:24;;;;;;;;;2.75;2.75;;;;;23.19;49.20;101680.34;5073353;27;45666;-66
2023/06/26 09:29:50;;;;;;;;;6.25;2.75;;;;;23.30;48.49;101704.06;5075284;28;46432;-66
2023/06/26 09:32:15;;;;;;;;;4.25;4.00;;;;;23.19;48.49;101685.78;5073364;27;45572;-66
2023/06/26 09:34:46;;;;;;;;;2.00;2.00;;;;;23.29;48.88;101692.31;5077947;27;45584;-66
2023/06/26 09:37:13;;;;;;;;;2.00;2.00;;;;;23.25;48.41;101682.59;5076599;27;45564;-66
2023/06/26 09:39:38;;;;;;;;;4.00;3.00;;;;;23.25;47.73;101690.75;5076941;28;46169;-66
2023/06/26 09:42:04;;;;;;;;;4.00;4.00;;;;;23.23;47.24;101687.28;5084834;27;45534;-66
2023/06/26 09:44:31;;;;;;;;;2.00;2.00;;;;;23.42;47.83;101707.75;5107027;27;45599;-66
2023/06/26 09:46:57;;;;;;;;;3.50;3.00;;;;;23.44;46.94;101703.09;5066167;27;45378;-66
2023/06/26 09:49:23;;;;;;;;;4.00;3.25;;;;;23.46;47.24;101710.16;5077210;28;46006;-66
2023/06/26 09:51:50;;;;;;;;;4.75;3.25;;;;;23.35;47.40;101688.25;5077475;27;45677;-66
2023/06/26 09:54:19;;;;;;;;;5.50;4.00;;;;;23.49;47.15;101711.81;5073087;28;45295;-66
2023/06/26 09:56:45;;;;;;;;;2.00;2.00;;;;;23.36;46.28;101689.16;5073390;27;45560;-67
2023/06/26 09:59:10;;;;;;;;;3.25;3.00;;;;;23.48;46.49;101707.34;5077026;28;45345;-66
2023/06/26 10:01:41;;;;;;;;;4.00;4.00;;;;;23.37;46.27;101699.94;5078198;27;45293;-66
2023/06/26 10:04:07;;;;;;;;;3.75;3.00;;;;;23.38;46.47;101695.34;5071898;28;45461;-66
2023/06/26 10:06:38;;;;;;;;;2.50;1.75;;;;;23.54;46.71;101719.63;5070098;27;45693;-66
2023/06/26 10:09:06;;;;;;;;;1.75;1.75;;;;;23.53;45.51;101724.22;5078220;27;46529;-66
2023/06/26 10:11:44;;;;;;;;;3.00;2.25;;;;;23.53;45.35;101720.63;5080942;27;45480;-66
2023/06/26 10:14:11;;;;;;;;;1.25;1.25;;;;;23.49;44.98;101711.81;5074598;28;46078;-66
2023/06/26 10:16:39;;;;;;;;;2.75;2.75;;;;;23.46;45.05;101706.59;5057488;28;46342;-64
2023/06/26 10:19:07;;;;;;;;;3.00;3.00;;;;;23.59;44.61;101722.91;5074887;28;47837;-65
2023/06/26 10:21:34;;;;;;;;;2.00;2.00;;;;;23.53;44.72;101707.88;5056137;28;45964;-65
2023/06/26 10:24:03;;;;;;;;;4.00;2.25;;;;;23.65;44.84;101714.28;5064271;27;45421;-64
2023/06/26 10:26:29;;;;;;;;;3.25;2.00;;;;;23.56;44.71;101695.91;5098507;27;45389;-64
2023/06/26 10:28:57;;;;;;;;;3.25;3.25;;;;;23.61;44.52;101701.88;5071712;27;46204;-64
2023/06/26 10:31:27;;;;;;;;;2.50;2.00;;;;;23.61;44.73;101688.25;5074852;27;47048;-64
2023/06/26 10:33:53;;;;;;;;;4.00;2.25;;;;;23.69;44.24;101704.94;5077142;28;45391;-65
2023/06/26 10:36:27;;;;;;;;;4.75;2.75;;;;;23.79;43.46;101710.56;5077795;27;45527;-64
2023/06/26 10:38:55;;;;;;;;;4.00;3.00;;;;;23.73;44.47;101692.81;5074798;27;46248;-65
2023/06/26 10:41:23;;;;;;;;;4.25;4.00;;;;;23.76;44.35;101697.16;5076165;27;45519;-65
2023/06/26 10:44:05;;;;;;;;;3.50;3.50;;;;;23.90;43.67;101716.13;5077863;28;45473;-65
2023/06/26 10:46:48;;;;;;;;;1.50;1.50;;;;;23.80;43.60;101698.69;5077026;27;45556;-65
2023/06/26 10:49:13;;;;;;;;;3.00;3.00;;;;;23.84;43.71;101711.16;5072179;28;47417;-65
2023/06/26 10:51:46;;;;;;;;;3.50;2.50;;;;;23.86;44.68;101709.16;5081413;27;45506;-65
2023/06/26 10:54:15;;;;;;;;;2.00;1.75;;;;;23.79;44.52;101700.53;5076926;27;45505;-65
2023/06/26 10:56:42;;;;;;;;;4.00;2.00;;;;;23.77;44.35;101677.97;5068728;27;45436;-64
2023/06/26 10:59:14;;;;;;;;;1.75;1.75;;;;;23.95;44.28;101704.88;5080557;27;45843;-64
2023/06/26 11:01:43;;;;;;;;;3.00;2.75;;;;;23.86;43.32;101681.91;5080096;27;45318;-65
2023/06/26 11:04:10;;;;;;;;;4.00;2.25;;;;;23.90;43.05;101686.13;5078009;28;45472;-65
2023/06/26 11:06:41;;;;;;;;;3.50;2.75;;;;;24.00;43.03;101706.28;5081532;27;45528;-65
2023/06/26 11:09:13;;;;;;;;;2.75;1.75;;;;;23.95;42.93;101680.34;5076899;27;48189;-65
2023/06/26 11:11:51;;;;;;;;;2.50;2.25;;;;;24.09;42.82;101706.59;5093248;27;46256;-65
2023/06/26 11:14:22;;;;;;;;;4.00;3.00;;;;;24.07;42.70;101714.88;5073546;28;46563;-65
2023/06/26 11:16:50;;;;;;;;;3.00;3.00;;;;;24.06;42.78;101704.97;5072109;28;45283;-65
2023/06/26 11:19:20;;;;;;;;;2.50;2.25;;;;;24.14;42.16;101709.84;5074099;27;46971;-65
2023/06/26 11:21:46;;;;;;;;;3.25;3.25;;;;;23.97;42.14;101682.00;5076659;28;45379;-65
2023/06/26 11:24:13;;;;;;;;;4.00;3.00;;;;;24.08;41.24;101691.22;5068345;28;45377;-65
2023/06/26 11:26:40;;;;;;;;;3.75;3.00;;;;;23.99;40.43;101690.03;5077943;27;46868;-65
2023/06/26 11:29:06;;;;;;;;;3.50;2.50;;;;;24.23;40.87;101725.53;5065351;28;45922;-65
2023/06/26 11:31:37;;;;;;;;;4.00;4.00;;;;;24.03;41.07;101684.25;5092847;27;45671;-64
2023/06/26 11:34:05;;;;;;;;;6.25;4.00;;;;;24.23;41.07;101700.97;5076705;28;45482;-65
2023/06/26 11:36:31;;;;;;;;;3.75;3.75;;;;;24.35;41.41;101715.56;5077208;28;45747;-65
2023/06/26 11:38:58;;;;;;;;;4.00;4.00;;;;;24.23;41.46;101690.06;5079607;27;47258;-65
2023/06/26 11:41:28;;;;;;;;;5.00;5.00;;;;;24.38;40.90;101718.91;5072087;27;45966;-65
2023/06/26 11:43:54;;;;;;;;;4.00;3.00;;;;;24.21;41.38;101692.03;5068311;28;45820;-65
2023/06/26 11:46:21;;;;;;;;;4.00;4.00;;;;;24.38;40.48;101724.38;5073638;28;45641;-64
2023/06/26 11:48:47;;;;;;;;;4.50;3.00;;;;;24.38;39.59;101716.19;5075767;27;47084;-66
2023/06/26 11:51:14;;;;;;;;;3.00;3.00;;;;;24.39;39.76;101719.78;5067545;27;45752;-65
2023/06/26 11:53:41;;;;;;;;;6.00;4.50;;;;;24.41;40.38;101721.41;5065857;28;45613;-65
2023/06/26 11:56:12;;;;;;;;;2.25;2.00;;;;;24.34;40.03;101701.06;5075072;28;45729;-65
2023/06/26 11:59:02;;;;;;;;;7.50;4.00;;;;;24.38;40.15;101710.72;5066832;27;47026;-66
2023/06/26 12:01:42;;;;;;;;;3.00;3.00;;;;;24.45;39.52;101723.91;5071698;27;45770;-65
2023/06/26 12:04:09;;;;;;;;;2.50;2.50;;;;;24.27;40.02;101686.09;5075386;28;45371;-65
2023/06/26 12:06:37;;;;;;;;;2.50;2.50;;;;;24.35;40.30;101686.41;5077166;27;45996;-65
2023/06/26 12:09:05;;;;;;;;;3.25;3.25;;;;;24.29;39.85;101673.25;5080827;28;46600;-64
2023/06/26 12:11:32;;;;;;;;;5.25;3.50;;;;;24.47;40.06;101697.38;5074918;27;45862;-65
2023/06/26 12:13:59;;;;;;;;;5.25;4.50;;;;;24.58;39.99;101713.84;5073029;28;45546;-65
2023/06/26 12:16:25;;;;;;;;;3.25;3.25;;;;;24.43;39.99;101691.28;5077125;27;45586;-73
2023/06/26 12:18:51;;;;;;;;;5.00;4.00;;;;;24.63;40.36;101717.09;5070846;27;47339;-73
2023/06/26 12:21:39;;;;;;;;;5.75;5.00;;;;;24.66;40.22;101718.69;5079003;27;45460;-73
2023/06/26 12:24:07;;;;;;;;;5.00;4.25;;;;;24.68;40.28;101717.59;5076312;28;45500;-73